Time;durP1;ratioP1;P1;durP2;ratioP2;P2;SDS_P1;SDS_P2;PMS_P1;PMS_P2;Temp;Humidity;BMP_temperature;BMP_pressure;BME280_temperature;BME280_humidity;BME280_pressure;Samples;Min_cycle;Max_cycle;Signal;HPM_P1;HPM_P2
2022/10/08 00:01:37;;;;;;;60.43;4.53;;;;;;;;;;5055316;28;20463;-69
2022/10/08 00:04:05;;;;;;;60.47;4.23;;;;;;;;;;5055298;28;20451;-69
2022/10/08 00:06:33;;;;;;;60.33;5.37;;;;;;;;;;5055073;28;20472;-69
2022/10/08 00:09:01;;;;;;;59.87;4.83;;;;;;;;;;5054883;28;20454;-69
2022/10/08 00:11:30;;;;;;;59.53;4.50;;;;;;;;;;5054728;28;20445;-69
2022/10/08 00:13:57;;;;;;;64.13;4.53;;;;;;;;;;5055114;28;20460;-69
2022/10/08 00:16:25;;;;;;;61.47;5.23;;;;;;;;;;5054966;28;20476;-69
2022/10/08 00:18:53;;;;;;;61.67;4.43;;;;;;;;;;5054580;28;20828;-69
2022/10/08 00:21:23;;;;;;;64.57;5.80;;;;;;;;;;5054128;28;20523;-69
2022/10/08 00:23:51;;;;;;;68.33;5.40;;;;;;;;;;5055053;28;20447;-69
2022/10/08 00:26:22;;;;;;;61.23;5.23;;;;;;;;;;5067340;28;20495;-69
2022/10/08 00:28:50;;;;;;;60.50;4.97;;;;;;;;;;5054559;28;20456;-69
2022/10/08 00:31:18;;;;;;;62.37;5.43;;;;;;;;;;5054687;28;20459;-69
2022/10/08 00:33:46;;;;;;;61.70;5.77;;;;;;;;;;5053697;28;20461;-69
2022/10/08 00:36:13;;;;;;;62.60;5.57;;;;;;;;;;5054521;28;21034;-69
2022/10/08 00:38:42;;;;;;;61.90;5.30;;;;;;;;;;5054428;28;20453;-69
2022/10/08 00:41:15;;;;;;;60.97;5.43;;;;;;;;;;5054564;28;20484;-69
2022/10/08 00:43:44;;;;;;;61.17;4.43;;;;;;;;;;5054221;28;20466;-69
2022/10/08 00:46:18;;;;;;;59.97;4.10;;;;;;;;;;5053868;28;20468;-69
2022/10/08 00:48:45;;;;;;;67.20;6.50;;;;;;;;;;5054317;28;20455;-69
2022/10/08 00:51:12;;;;;;;62.37;5.73;;;;;;;;;;5054351;28;20462;-69
2022/10/08 00:53:40;;;;;;;61.17;4.80;;;;;;;;;;5054382;28;20447;-69
2022/10/08 00:56:09;;;;;;;60.70;4.83;;;;;;;;;;5053386;28;20478;-69
2022/10/08 00:58:37;;;;;;;63.23;3.90;;;;;;;;;;5053783;28;20516;-69
2022/10/08 01:01:04;;;;;;;60.03;4.60;;;;;;;;;;5054287;28;20498;-69
2022/10/08 01:03:31;;;;;;;62.00;5.27;;;;;;;;;;5054055;28;20460;-69
2022/10/08 01:06:02;;;;;;;60.47;4.53;;;;;;;;;;5053793;28;20475;-69
2022/10/08 01:08:33;;;;;;;62.27;5.80;;;;;;;;;;5053193;28;20456;-69
2022/10/08 01:11:04;;;;;;;63.53;5.87;;;;;;;;;;5053859;28;20442;-69
2022/10/08 01:13:40;;;;;;;61.47;5.70;;;;;;;;;;5053899;28;20453;-69
2022/10/08 01:16:14;;;;;;;63.60;6.40;;;;;;;;;;5053791;28;20506;-69
2022/10/08 01:18:44;;;;;;;61.07;4.97;;;;;;;;;;5053135;28;20455;-69
2022/10/08 01:21:13;;;;;;;62.27;5.23;;;;;;;;;;5053596;28;20490;-69
2022/10/08 01:23:54;;;;;;;62.57;5.53;;;;;;;;;;5053665;28;20452;-69
2022/10/08 01:26:26;;;;;;;61.60;4.90;;;;;;;;;;5053735;28;20475;-69
2022/10/08 01:28:57;;;;;;;61.60;4.90;;;;;;;;;;5053287;28;20957;-69
2022/10/08 01:31:26;;;;;;;62.90;5.80;;;;;;;;;;5053561;28;20451;-69
2022/10/08 01:33:55;;;;;;;61.27;4.70;;;;;;;;;;5053439;28;20819;-69
2022/10/08 01:36:23;;;;;;;61.87;5.27;;;;;;;;;;5052692;28;20479;-69
2022/10/08 01:38:53;;;;;;;62.00;4.60;;;;;;;;;;5053128;28;20507;-69
2022/10/08 01:41:22;;;;;;;62.57;4.67;;;;;;;;;;5051611;28;20854;-69
2022/10/08 01:43:52;;;;;;;77.43;5.80;;;;;;;;;;5053278;28;20826;-69
2022/10/08 01:46:21;;;;;;;61.87;5.07;;;;;;;;;;5053213;28;20485;-69
2022/10/08 01:48:49;;;;;;;60.50;5.10;;;;;;;;;;5052388;28;20937;-69
2022/10/08 01:51:18;;;;;;;60.87;5.40;;;;;;;;;;5053381;28;20452;-69
2022/10/08 01:53:47;;;;;;;61.10;5.50;;;;;;;;;;5053270;28;20966;-69
2022/10/08 01:56:17;;;;;;;60.30;4.90;;;;;;;;;;5052988;28;20465;-69
2022/10/08 01:58:49;;;;;;;60.27;4.40;;;;;;;;;;5052599;28;20516;-69
2022/10/08 02:01:21;;;;;;;61.10;4.63;;;;;;;;;;5053179;28;20487;-69
2022/10/08 02:06:31;;;;;;;61.60;4.40;;;;;;;;;;5052520;28;20456;-69
2022/10/08 02:08:58;;;;;;;62.80;5.50;;;;;;;;;;5051594;28;20490;-69
2022/10/08 02:11:25;;;;;;;62.37;4.57;;;;;;;;;;5052776;28;20455;-69
2022/10/08 02:13:52;;;;;;;59.77;3.77;;;;;;;;;;5053083;28;20804;-69
2022/10/08 02:16:26;;;;;;;61.57;5.23;;;;;;;;;;5058170;28;20465;-69
2022/10/08 02:18:58;;;;;;;60.07;4.50;;;;;;;;;;5052813;28;20476;-69
2022/10/08 02:21:28;;;;;;;61.53;4.50;;;;;;;;;;5051680;28;21013;-69
2022/10/08 02:23:57;;;;;;;60.57;4.10;;;;;;;;;;5052849;28;20449;-69
2022/10/08 02:26:28;;;;;;;60.37;5.00;;;;;;;;;;5052585;28;20468;-69
2022/10/08 02:28:58;;;;;;;63.03;5.23;;;;;;;;;;5052278;28;20453;-69
2022/10/08 02:31:27;;;;;;;62.77;4.70;;;;;;;;;;5052109;28;20456;-69
2022/10/08 02:33:59;;;;;;;61.70;4.80;;;;;;;;;;5051965;28;20554;-69
2022/10/08 02:36:27;;;;;;;62.20;5.43;;;;;;;;;;5052480;28;20469;-69
2022/10/08 02:38:56;;;;;;;61.00;4.90;;;;;;;;;;5052111;28;20456;-69
2022/10/08 02:41:27;;;;;;;61.70;5.27;;;;;;;;;;5052251;28;20484;-69
2022/10/08 02:43:54;;;;;;;62.47;5.30;;;;;;;;;;5051500;28;20960;-69
2022/10/08 02:46:23;;;;;;;67.50;6.40;;;;;;;;;;5052049;28;20477;-69
2022/10/08 02:48:52;;;;;;;59.50;4.10;;;;;;;;;;5051787;28;20965;-69
2022/10/08 02:51:21;;;;;;;61.77;5.77;;;;;;;;;;5052227;28;20445;-69
2022/10/08 02:53:49;;;;;;;62.57;4.93;;;;;;;;;;5051974;28;20451;-69
2022/10/08 02:56:23;;;;;;;60.17;4.73;;;;;;;;;;5051345;28;20463;-69
2022/10/08 02:58:50;;;;;;;61.60;5.50;;;;;;;;;;5051554;28;20456;-69
2022/10/08 03:01:25;;;;;;;63.00;5.50;;;;;;;;;;5052066;28;20488;-69
2022/10/08 03:03:54;;;;;;;60.57;5.07;;;;;;;;;;5052094;28;20543;-69
2022/10/08 03:06:23;;;;;;;59.47;4.30;;;;;;;;;;5051068;28;20476;-69
2022/10/08 03:08:50;;;;;;;64.00;5.90;;;;;;;;;;5051410;28;20461;-69
2022/10/08 03:11:17;;;;;;;64.30;5.90;;;;;;;;;;5051694;28;20451;-69
2022/10/08 03:13:47;;;;;;;60.33;5.00;;;;;;;;;;5051692;28;20457;-69
2022/10/08 03:16:15;;;;;;;61.40;4.90;;;;;;;;;;5051649;28;20988;-69
2022/10/08 03:18:42;;;;;;;61.70;5.27;;;;;;;;;;5050754;28;20457;-69
2022/10/08 03:21:11;;;;;;;61.10;5.07;;;;;;;;;;5051444;28;20572;-69
2022/10/08 03:23:40;;;;;;;59.70;3.70;;;;;;;;;;5051629;28;20458;-69
2022/10/08 03:26:07;;;;;;;60.07;4.90;;;;;;;;;;5051758;28;20477;-69
2022/10/08 03:28:34;;;;;;;62.87;6.00;;;;;;;;;;5050951;28;20459;-69
2022/10/08 03:31:04;;;;;;;68.53;10.03;;;;;;;;;;5051155;28;20440;-69
2022/10/08 03:33:31;;;;;;;62.27;6.87;;;;;;;;;;5051576;28;20457;-69
2022/10/08 03:35:59;;;;;;;61.60;5.90;;;;;;;;;;5051480;28;21023;-69
2022/10/08 03:38:26;;;;;;;63.80;5.97;;;;;;;;;;5051239;28;20452;-70
2022/10/08 03:40:58;;;;;;;62.00;5.90;;;;;;;;;;5050653;28;20493;-69
2022/10/08 03:43:31;;;;;;;60.90;5.33;;;;;;;;;;5051466;28;20979;-69
2022/10/08 03:45:58;;;;;;;61.47;5.37;;;;;;;;;;5051509;28;20465;-69
2022/10/08 03:48:25;;;;;;;62.90;5.00;;;;;;;;;;5051445;28;20454;-69
2022/10/08 03:50:53;;;;;;;60.80;4.37;;;;;;;;;;5051067;28;20483;-69
2022/10/08 03:53:20;;;;;;;60.20;4.23;;;;;;;;;;5050584;28;20950;-69
2022/10/08 03:55:48;;;;;;;60.67;5.47;;;;;;;;;;5051497;28;20847;-69
2022/10/08 03:58:16;;;;;;;62.20;5.47;;;;;;;;;;5051341;28;20573;-69
2022/10/08 04:00:44;;;;;;;62.20;5.03;;;;;;;;;;5051104;28;20490;-69
2022/10/08 04:03:11;;;;;;;60.47;4.20;;;;;;;;;;5050969;28;20488;-69
2022/10/08 04:05:38;;;;;;;60.17;4.40;;;;;;;;;;5050676;28;20996;-69
2022/10/08 04:08:05;;;;;;;62.07;5.40;;;;;;;;;;5051457;28;20452;-69
2022/10/08 04:10:32;;;;;;;63.80;6.27;;;;;;;;;;5051769;28;20444;-69
2022/10/08 04:12:59;;;;;;;61.33;4.50;;;;;;;;;;5051826;28;20962;-69
2022/10/08 04:15:27;;;;;;;60.90;5.10;;;;;;;;;;5055746;28;20577;-69
2022/10/08 04:17:54;;;;;;;61.73;5.77;;;;;;;;;;5052483;28;20442;-69
2022/10/08 04:20:22;;;;;;;61.00;5.53;;;;;;;;;;5051369;28;20847;-69
2022/10/08 04:22:49;;;;;;;61.70;4.67;;;;;;;;;;5051524;28;20445;-69
2022/10/08 04:25:16;;;;;;;60.70;5.13;;;;;;;;;;5051769;28;20915;-69
2022/10/08 04:27:47;;;;;;;61.57;5.17;;;;;;;;;;5050718;28;20983;-69
2022/10/08 04:30:15;;;;;;;62.10;6.23;;;;;;;;;;5051253;28;20455;-69
2022/10/08 04:32:43;;;;;;;61.27;5.07;;;;;;;;;;5051512;28;20447;-69
2022/10/08 04:35:10;;;;;;;61.57;5.00;;;;;;;;;;5051285;28;20484;-69
2022/10/08 04:37:37;;;;;;;62.77;6.10;;;;;;;;;;5051346;28;20449;-69
2022/10/08 04:40:05;;;;;;;61.30;5.53;;;;;;;;;;5050608;28;20450;-69
2022/10/08 04:42:32;;;;;;;60.47;5.43;;;;;;;;;;5053639;28;20445;-69
2022/10/08 04:44:59;;;;;;;60.70;5.40;;;;;;;;;;5054760;28;20474;-69
2022/10/08 04:47:26;;;;;;;64.63;6.40;;;;;;;;;;5054798;28;20816;-69
2022/10/08 04:49:54;;;;;;;61.90;6.10;;;;;;;;;;5054092;28;20471;-69
2022/10/08 04:52:21;;;;;;;61.20;5.77;;;;;;;;;;5054593;28;21045;-69
2022/10/08 04:54:49;;;;;;;67.90;6.83;;;;;;;;;;5054802;28;20445;-69
2022/10/08 04:57:16;;;;;;;60.40;5.20;;;;;;;;;;5054849;28;20793;-69
2022/10/08 04:59:43;;;;;;;65.17;5.53;;;;;;;;;;5054558;28;20450;-69
2022/10/08 05:02:10;;;;;;;63.70;6.37;;;;;;;;;;5053657;28;21116;-69
2022/10/08 05:04:37;;;;;;;61.67;5.90;;;;;;;;;;5054250;28;20548;-69
2022/10/08 05:07:06;;;;;;;63.40;6.50;;;;;;;;;;5054134;28;20453;-69
2022/10/08 05:09:33;;;;;;;63.37;6.90;;;;;;;;;;5053749;28;20461;-69
2022/10/08 05:12:00;;;;;;;63.67;6.33;;;;;;;;;;5053764;28;20454;-69
2022/10/08 05:14:27;;;;;;;63.90;7.10;;;;;;;;;;5053263;28;20448;-69
2022/10/08 05:16:54;;;;;;;61.97;6.03;;;;;;;;;;5053996;28;20486;-69
2022/10/08 05:19:21;;;;;;;62.00;7.50;;;;;;;;;;5053560;28;20451;-69
2022/10/08 05:21:48;;;;;;;62.53;5.53;;;;;;;;;;5053802;28;20488;-69
2022/10/08 05:24:17;;;;;;;60.77;5.20;;;;;;;;;;5053186;28;20452;-69
2022/10/08 05:26:44;;;;;;;62.60;6.57;;;;;;;;;;5053528;28;20501;-69
2022/10/08 05:29:11;;;;;;;67.47;5.63;;;;;;;;;;5053647;28;20451;-69
2022/10/08 05:31:39;;;;;;;64.07;5.73;;;;;;;;;;5053815;28;20447;-69
2022/10/08 05:34:06;;;;;;;61.50;5.27;;;;;;;;;;5053557;28;20463;-69
2022/10/08 05:36:34;;;;;;;63.63;5.50;;;;;;;;;;5052750;28;20474;-69
2022/10/08 05:39:02;;;;;;;62.13;5.47;;;;;;;;;;5053289;28;20450;-69
2022/10/08 05:41:32;;;;;;;63.17;6.23;;;;;;;;;;5053292;28;20497;-69
2022/10/08 05:44:00;;;;;;;62.40;5.23;;;;;;;;;;5053610;28;20454;-69
2022/10/08 05:46:28;;;;;;;62.87;4.83;;;;;;;;;;5053154;28;20599;-69
2022/10/08 05:48:56;;;;;;;62.90;5.27;;;;;;;;;;5052372;28;20455;-69
2022/10/08 05:51:23;;;;;;;64.57;5.70;;;;;;;;;;5053167;28;20944;-69
2022/10/08 05:53:51;;;;;;;62.63;5.97;;;;;;;;;;5051950;28;20446;-69
2022/10/08 05:56:19;;;;;;;63.03;6.80;;;;;;;;;;5053345;28;20466;-69
2022/10/08 05:58:47;;;;;;;61.47;5.90;;;;;;;;;;5052312;28;20539;-69
2022/10/08 06:01:15;;;;;;;62.57;5.40;;;;;;;;;;5053181;28;20482;-69
2022/10/08 06:03:43;;;;;;;61.27;5.27;;;;;;;;;;5053115;28;20454;-69
2022/10/08 06:06:11;;;;;;;61.00;4.60;;;;;;;;;;5052974;28;20984;-69
2022/10/08 06:08:40;;;;;;;64.10;5.30;;;;;;;;;;5060942;28;20629;-69
2022/10/08 06:11:07;;;;;;;60.73;5.00;;;;;;;;;;5052282;28;20495;-69
2022/10/08 06:13:34;;;;;;;63.87;5.43;;;;;;;;;;5052963;28;20453;-69
2022/10/08 06:16:03;;;;;;;64.00;6.23;;;;;;;;;;5052810;28;20473;-69
2022/10/08 06:18:31;;;;;;;62.97;6.10;;;;;;;;;;5052519;28;21058;-69
2022/10/08 06:21:02;;;;;;;60.70;4.73;;;;;;;;;;5052397;28;20689;-69
2022/10/08 06:23:29;;;;;;;64.03;5.70;;;;;;;;;;5052836;28;20453;-69
2022/10/08 06:25:56;;;;;;;59.87;4.10;;;;;;;;;;5052493;28;20470;-69
2022/10/08 06:28:23;;;;;;;61.80;6.40;;;;;;;;;;5052551;28;20968;-69
2022/10/08 06:30:50;;;;;;;61.77;6.90;;;;;;;;;;5051724;28;20451;-69
2022/10/08 06:33:18;;;;;;;61.40;5.93;;;;;;;;;;5052305;28;20464;-69
2022/10/08 06:35:45;;;;;;;60.70;5.60;;;;;;;;;;5052245;28;20942;-69
2022/10/08 06:38:13;;;;;;;61.23;5.20;;;;;;;;;;5052490;28;20456;-69
2022/10/08 06:40:40;;;;;;;61.47;5.20;;;;;;;;;;5051690;28;20461;-69
2022/10/08 06:43:07;;;;;;;61.80;5.03;;;;;;;;;;5052040;28;20787;-69
2022/10/08 06:45:38;;;;;;;61.20;4.70;;;;;;;;;;5052066;28;21097;-69
2022/10/08 06:48:05;;;;;;;62.60;5.07;;;;;;;;;;5052120;28;20792;-69
2022/10/08 06:50:34;;;;;;;61.30;5.70;;;;;;;;;;5052131;28;20448;-69
2022/10/08 06:53:01;;;;;;;60.40;4.30;;;;;;;;;;5051752;28;20459;-67
2022/10/08 06:55:28;;;;;;;61.00;5.40;;;;;;;;;;5052441;28;21018;-68
2022/10/08 06:57:55;;;;;;;59.77;4.27;;;;;;;;;;5051883;28;20451;-68
2022/10/08 07:00:22;;;;;;;63.87;6.47;;;;;;;;;;5051676;28;20454;-68
2022/10/08 07:02:49;;;;;;;62.67;5.00;;;;;;;;;;5052150;28;20485;-68
2022/10/08 07:05:16;;;;;;;61.53;5.43;;;;;;;;;;5050981;28;20490;-68
2022/10/08 07:07:45;;;;;;;62.23;5.53;;;;;;;;;;5051876;28;20990;-69
2022/10/08 07:10:12;;;;;;;65.13;5.70;;;;;;;;;;5051599;28;20454;-70
2022/10/08 07:12:39;;;;;;;61.07;5.77;;;;;;;;;;5051817;28;20947;-69
2022/10/08 07:15:07;;;;;;;62.33;5.17;;;;;;;;;;5051117;28;20475;-69
2022/10/08 07:17:34;;;;;;;62.47;5.27;;;;;;;;;;5051406;28;20457;-69
2022/10/08 07:20:01;;;;;;;62.20;6.30;;;;;;;;;;5051573;28;20451;-69
2022/10/08 07:22:28;;;;;;;61.57;5.00;;;;;;;;;;5051632;28;20517;-69
2022/10/08 07:24:56;;;;;;;61.60;5.50;;;;;;;;;;5051659;28;20477;-69
2022/10/08 07:27:23;;;;;;;63.80;4.83;;;;;;;;;;5050807;28;20459;-70
2022/10/08 07:29:51;;;;;;;61.50;5.70;;;;;;;;;;5051336;28;20920;-70
2022/10/08 07:32:18;;;;;;;64.00;5.97;;;;;;;;;;5051889;28;20444;-70
2022/10/08 07:34:45;;;;;;;61.50;5.00;;;;;;;;;;5051397;28;20471;-69
2022/10/08 07:37:12;;;;;;;64.80;6.40;;;;;;;;;;5051736;28;20454;-69
2022/10/08 07:39:39;;;;;;;59.70;4.97;;;;;;;;;;5050500;28;20455;-70
2022/10/08 07:42:07;;;;;;;61.57;5.23;;;;;;;;;;5051451;28;20484;-70
2022/10/08 07:44:34;;;;;;;61.77;5.30;;;;;;;;;;5051390;28;20451;-69
2022/10/08 07:47:02;;;;;;;62.37;5.87;;;;;;;;;;5051700;28;20832;-69
2022/10/08 07:49:29;;;;;;;62.93;4.43;;;;;;;;;;5050799;28;20449;-69
2022/10/08 07:51:56;;;;;;;59.37;4.13;;;;;;;;;;5050980;28;20448;-69
2022/10/08 07:54:23;;;;;;;61.30;5.70;;;;;;;;;;5056271;28;20458;-69
2022/10/08 07:56:50;;;;;;;61.87;5.93;;;;;;;;;;5056292;28;20476;-69
2022/10/08 07:59:18;;;;;;;70.23;4.60;;;;;;;;;;5051338;28;20826;-69
2022/10/08 08:01:46;;;;;;;60.20;4.30;;;;;;;;;;5050593;28;20507;-70
2022/10/08 08:04:13;;;;;;;62.07;4.90;;;;;;;;;;5051418;28;20456;-70
2022/10/08 08:06:41;;;;;;;58.80;3.40;;;;;;;;;;5051224;28;20472;-69
2022/10/08 08:09:08;;;;;;;59.50;4.03;;;;;;;;;;5050924;28;20448;-69
2022/10/08 08:11:36;;;;;;;58.97;3.87;;;;;;;;;;5051224;28;20451;-69
2022/10/08 08:14:03;;;;;;;58.50;3.20;;;;;;;;;;5050677;28;20444;-69
2022/10/08 08:16:31;;;;;;;78.87;3.73;;;;;;;;;;5051765;28;20472;-69
2022/10/08 08:18:59;;;;;;;57.77;2.80;;;;;;;;;;5054625;28;20944;-69
2022/10/08 08:21:27;;;;;;;57.80;2.57;;;;;;;;;;5054943;28;20454;-69
2022/10/08 08:23:55;;;;;;;58.07;2.70;;;;;;;;;;5054476;28;20448;-69
2022/10/08 08:26:23;;;;;;;57.87;2.67;;;;;;;;;;5054624;28;20499;-69
2022/10/08 08:28:51;;;;;;;59.20;3.50;;;;;;;;;;5054689;28;20447;-70
2022/10/08 08:31:19;;;;;;;60.40;3.10;;;;;;;;;;5054744;28;20478;-70
2022/10/08 08:33:50;;;;;;;59.07;2.80;;;;;;;;;;5054674;28;20460;-70
2022/10/08 08:36:17;;;;;;;64.83;3.07;;;;;;;;;;5053802;28;20498;-70
2022/10/08 08:38:45;;;;;;;59.10;3.03;;;;;;;;;;5054562;28;20528;-69
2022/10/08 08:41:19;;;;;;;58.37;2.73;;;;;;;;;;5054821;28;20466;-69
2022/10/08 08:43:46;;;;;;;59.40;3.20;;;;;;;;;;5054507;28;20502;-69
2022/10/08 08:46:14;;;;;;;57.83;2.60;;;;;;;;;;5054506;28;20840;-69
2022/10/08 08:48:43;;;;;;;58.60;3.00;;;;;;;;;;5053308;28;20448;-69
2022/10/08 08:51:12;;;;;;;59.80;3.10;;;;;;;;;;5054350;28;20448;-69
2022/10/08 08:53:39;;;;;;;60.27;2.70;;;;;;;;;;5054596;28;20440;-69
2022/10/08 08:56:08;;;;;;;60.30;2.97;;;;;;;;;;5054351;28;21002;-69
2022/10/08 08:58:38;;;;;;;58.37;2.80;;;;;;;;;;5053459;28;21043;-69
2022/10/08 09:01:11;;;;;;;58.70;2.83;;;;;;;;;;5053940;28;20476;-69
2022/10/08 09:03:40;;;;;;;58.40;2.73;;;;;;;;;;5054089;28;21008;-69
2022/10/08 09:06:09;;;;;;;58.97;3.10;;;;;;;;;;5054063;28;20472;-69
2022/10/08 09:08:41;;;;;;;58.00;2.60;;;;;;;;;;5053889;28;20817;-69
2022/10/08 09:11:13;;;;;;;58.07;2.80;;;;;;;;;;5053464;28;20539;-70
2022/10/08 09:13:44;;;;;;;58.30;2.40;;;;;;;;;;5054581;28;20452;-70
2022/10/08 09:16:11;;;;;;;58.80;2.97;;;;;;;;;;5053852;28;20984;-70
2022/10/08 09:18:39;;;;;;;57.67;2.50;;;;;;;;;;5053588;28;20936;-70
2022/10/08 09:21:06;;;;;;;58.10;2.60;;;;;;;;;;5053892;28;20456;-69
2022/10/08 09:23:33;;;;;;;62.70;2.40;;;;;;;;;;5053224;28;20486;-69
2022/10/08 09:26:04;;;;;;;61.93;2.53;;;;;;;;;;5053832;28;20507;-69
2022/10/08 09:28:38;;;;;;;58.97;3.17;;;;;;;;;;5053363;28;20452;-69
2022/10/08 09:31:12;;;;;;;61.40;2.87;;;;;;;;;;5053657;28;20455;-69
2022/10/08 09:33:39;;;;;;;58.50;2.70;;;;;;;;;;5061941;28;20440;-69
2022/10/08 09:36:07;;;;;;;59.90;3.63;;;;;;;;;;5071107;28;20564;-69
2022/10/08 09:38:36;;;;;;;57.57;2.57;;;;;;;;;;5053303;28;20459;-70
2022/10/08 09:41:06;;;;;;;59.80;2.70;;;;;;;;;;5053437;28;20452;-70
2022/10/08 09:43:34;;;;;;;58.00;2.60;;;;;;;;;;5053615;28;20510;-69
2022/10/08 09:46:04;;;;;;;57.90;2.50;;;;;;;;;;5052558;28;20468;-69
2022/10/08 09:48:31;;;;;;;57.60;2.20;;;;;;;;;;5053303;28;20475;-70
2022/10/08 09:51:00;;;;;;;58.30;2.60;;;;;;;;;;5053385;28;20895;-70
2022/10/08 09:53:29;;;;;;;59.40;2.43;;;;;;;;;;5053191;28;20448;-70
2022/10/08 09:55:58;;;;;;;58.00;3.50;;;;;;;;;;5053005;28;20476;-70
2022/10/08 09:58:28;;;;;;;57.20;2.30;;;;;;;;;;5053076;28;20444;-70
2022/10/08 10:01:00;;;;;;;58.33;2.40;;;;;;;;;;5053290;28;20456;-70
2022/10/08 10:03:28;;;;;;;60.10;2.70;;;;;;;;;;5053087;28;20484;-70
2022/10/08 10:05:57;;;;;;;58.60;2.60;;;;;;;;;;5052735;28;20468;-70
2022/10/08 10:08:51;;;;;;;58.50;2.50;;;;;;;;;;5053101;28;20467;-70
2022/10/08 10:11:21;;;;;;;58.97;2.70;;;;;;;;;;5053153;28;20440;-69
2022/10/08 10:13:50;;;;;;;60.03;2.87;;;;;;;;;;5052959;28;20454;-70
2022/10/08 10:16:21;;;;;;;57.87;2.67;;;;;;;;;;5051842;28;20468;-70
2022/10/08 10:18:51;;;;;;;58.43;2.50;;;;;;;;;;5052719;28;20813;-70
2022/10/08 10:21:21;;;;;;;61.23;4.33;;;;;;;;;;5052772;28;20456;-70
2022/10/08 10:23:50;;;;;;;57.43;2.27;;;;;;;;;;5052579;28;20859;-70
2022/10/08 10:26:20;;;;;;;59.27;2.40;;;;;;;;;;5052104;28;20959;-70
2022/10/08 10:28:49;;;;;;;58.20;2.50;;;;;;;;;;5051858;28;20448;-70
2022/10/08 10:31:19;;;;;;;57.50;2.53;;;;;;;;;;5052879;28;20444;-70
2022/10/08 10:33:51;;;;;;;57.57;2.83;;;;;;;;;;5052617;28;20456;-70
2022/10/08 10:36:18;;;;;;;57.60;2.20;;;;;;;;;;5052513;28;20479;-70
2022/10/08 10:38:49;;;;;;;61.00;2.30;;;;;;;;;;5050946;28;20459;-70
2022/10/08 10:41:20;;;;;;;57.17;2.10;;;;;;;;;;5052647;28;20506;-70
2022/10/08 10:43:49;;;;;;;59.47;2.70;;;;;;;;;;5052490;28;20551;-70
2022/10/08 10:46:22;;;;;;;57.40;2.13;;;;;;;;;;5052258;28;20499;-70
2022/10/08 10:48:50;;;;;;;57.87;2.30;;;;;;;;;;5052003;28;20458;-69
2022/10/08 10:51:27;;;;;;;57.60;2.30;;;;;;;;;;5052287;28;20452;-69
2022/10/08 10:54:00;;;;;;;58.00;2.57;;;;;;;;;;5052050;28;20456;-69
2022/10/08 10:56:31;;;;;;;58.57;3.60;;;;;;;;;;5051415;28;20528;-69
2022/10/08 10:59:09;;;;;;;58.30;2.27;;;;;;;;;;5051781;28;20452;-69
2022/10/08 11:01:40;;;;;;;57.90;2.60;;;;;;;;;;5052160;28;20828;-70
2022/10/08 11:04:10;;;;;;;58.87;2.57;;;;;;;;;;5052049;28;20479;-70
2022/10/08 11:06:47;;;;;;;60.00;3.50;;;;;;;;;;5051816;28;20548;-69
2022/10/08 11:09:21;;;;;;;57.40;2.27;;;;;;;;;;5051174;28;20448;-69
2022/10/08 11:11:52;;;;;;;57.97;2.57;;;;;;;;;;5052022;28;20448;-69
2022/10/08 11:14:30;;;;;;;58.57;2.70;;;;;;;;;;5051788;28;20455;-69
2022/10/08 11:17:04;;;;;;;59.53;2.47;;;;;;;;;;5051682;28;20529;-69
2022/10/08 11:19:37;;;;;;;61.00;3.03;;;;;;;;;;5050919;28;20454;-70
2022/10/08 11:22:08;;;;;;;57.27;1.90;;;;;;;;;;5051896;28;20828;-70
2022/10/08 11:24:41;;;;;;;57.40;2.20;;;;;;;;;;5051614;28;20488;-70
2022/10/08 11:27:13;;;;;;;57.10;1.80;;;;;;;;;;5051617;28;20458;-70
2022/10/08 11:29:44;;;;;;;57.07;1.77;;;;;;;;;;5051230;28;20543;-70
2022/10/08 11:32:14;;;;;;;58.87;2.00;;;;;;;;;;5051221;28;20444;-70
2022/10/08 11:34:44;;;;;;;60.57;2.60;;;;;;;;;;5051278;28;20456;-69
2022/10/08 11:37:14;;;;;;;57.50;2.30;;;;;;;;;;5051631;28;20832;-70
2022/10/08 11:39:46;;;;;;;57.30;2.00;;;;;;;;;;5051147;28;20815;-70
2022/10/08 11:42:17;;;;;;;57.17;2.70;;;;;;;;;;5061278;28;20435;-69
2022/10/08 11:44:45;;;;;;;57.17;2.03;;;;;;;;;;5051412;28;20480;-69
2022/10/08 11:47:45;;;;;;;57.30;1.90;;;;;;;;;;5051408;28;20449;-69
2022/10/08 11:50:21;;;;;;;57.50;1.80;;;;;;;;;;4989685;28;20482;-69
2022/10/08 11:52:49;;;;;;;59.37;2.23;;;;;;;;;;4993671;28;20465;-70
2022/10/08 11:55:18;;;;;;;57.77;2.30;;;;;;;;;;4993254;28;20470;-70
2022/10/08 11:57:54;;;;;;;57.20;1.97;;;;;;;;;;4993785;28;20447;-70
2022/10/08 12:00:28;;;;;;;60.70;2.00;;;;;;;;;;4993473;28;20481;-70
2022/10/08 12:02:56;;;;;;;58.40;2.27;;;;;;;;;;4993722;28;20517;-70
2022/10/08 12:05:33;;;;;;;57.20;1.80;;;;;;;;;;4992925;28;20467;-70
2022/10/08 12:08:04;;;;;;;59.90;2.87;;;;;;;;;;4993572;28;20459;-70
2022/10/08 12:10:32;;;;;;;58.53;2.33;;;;;;;;;;4993385;28;20545;-70
2022/10/08 12:13:02;;;;;;;57.00;1.90;;;;;;;;;;4993427;28;20450;-70
2022/10/08 12:15:47;;;;;;;56.97;1.87;;;;;;;;;;4993309;28;20984;-70
2022/10/08 12:18:29;;;;;;;57.50;1.90;;;;;;;;;;4992631;28;20510;-70
2022/10/08 12:21:11;;;;;;;59.60;2.60;;;;;;;;;;5017200;28;20452;-70
2022/10/08 12:23:40;;;;;;;58.63;3.50;;;;;;;;;;5054525;28;21015;-70
2022/10/08 12:26:11;;;;;;;60.20;1.97;;;;;;;;;;5054769;28;20474;-70
2022/10/08 12:28:39;;;;;;;61.33;2.50;;;;;;;;;;5053760;28;20455;-70
2022/10/08 12:31:27;;;;;;;58.13;2.10;;;;;;;;;;5054810;28;20452;-69
2022/10/08 12:34:12;;;;;;;57.40;2.03;;;;;;;;;;5054603;28;20452;-70
2022/10/08 12:36:49;;;;;;;57.70;2.23;;;;;;;;;;5054834;28;20459;-70
2022/10/08 12:39:25;;;;;;;57.40;1.97;;;;;;;;;;5054021;28;20970;-69
2022/10/08 12:41:57;;;;;;;57.30;2.00;;;;;;;;;;5054290;28;20448;-70
2022/10/08 12:44:30;;;;;;;57.70;2.10;;;;;;;;;;5054412;28;21008;-70
2022/10/08 12:47:01;;;;;;;57.70;2.07;;;;;;;;;;5054398;28;20468;-70
2022/10/08 12:49:32;;;;;;;58.07;2.83;;;;;;;;;;5054255;28;20446;-70
2022/10/08 12:52:01;;;;;;;59.60;2.60;;;;;;;;;;5053896;28;20448;-70
2022/10/08 12:54:31;;;;;;;57.50;2.07;;;;;;;;;;5054451;28;20444;-70
2022/10/08 12:56:58;;;;;;;57.70;2.40;;;;;;;;;;5054205;28;20479;-70
2022/10/08 12:59:30;;;;;;;57.57;2.10;;;;;;;;;;5053994;28;20955;-70
2022/10/08 13:01:57;;;;;;;57.60;2.20;;;;;;;;;;5053676;28;21084;-70
2022/10/08 13:04:25;;;;;;;57.70;2.27;;;;;;;;;;5053675;28;20487;-70
2022/10/08 13:06:53;;;;;;;58.03;2.23;;;;;;;;;;5054135;28;20464;-70
2022/10/08 13:09:28;;;;;;;59.70;2.37;;;;;;;;;;5053759;28;20452;-70
2022/10/08 13:11:57;;;;;;;58.60;2.20;;;;;;;;;;5054237;28;20447;-70
2022/10/08 13:14:28;;;;;;;57.00;2.17;;;;;;;;;;5053490;28;20511;-70
2022/10/08 13:16:55;;;;;;;57.20;1.90;;;;;;;;;;5054050;28;20551;-70
2022/10/08 13:19:30;;;;;;;57.20;1.90;;;;;;;;;;5053681;28;20448;-70
2022/10/08 13:21:59;;;;;;;57.90;2.07;;;;;;;;;;5053863;28;20447;-70
2022/10/08 13:24:33;;;;;;;56.77;1.70;;;;;;;;;;5053834;28;20484;-70
2022/10/08 13:27:02;;;;;;;57.17;1.90;;;;;;;;;;5053309;28;20451;-70
2022/10/08 13:29:31;;;;;;;58.47;2.00;;;;;;;;;;5053544;28;20823;-70
2022/10/08 13:31:59;;;;;;;59.40;2.30;;;;;;;;;;5053738;28;20478;-70
2022/10/08 13:34:28;;;;;;;58.63;2.07;;;;;;;;;;5053546;28;20460;-70
2022/10/08 13:36:55;;;;;;;58.80;2.30;;;;;;;;;;5053143;28;20464;-70
2022/10/08 13:39:23;;;;;;;57.37;1.97;;;;;;;;;;5052966;28;20796;-70
2022/10/08 13:41:52;;;;;;;58.53;2.03;;;;;;;;;;5053658;28;20440;-70
2022/10/08 13:44:20;;;;;;;57.10;2.00;;;;;;;;;;5053439;28;20488;-70
2022/10/08 13:46:47;;;;;;;57.17;1.80;;;;;;;;;;5053337;28;20464;-70
2022/10/08 13:49:19;;;;;;;57.30;1.90;;;;;;;;;;5052598;28;20463;-70
2022/10/08 13:51:47;;;;;;;57.60;2.10;;;;;;;;;;5064998;28;20456;-69
2022/10/08 13:54:15;;;;;;;56.97;2.13;;;;;;;;;;5053502;28;20440;-70
2022/10/08 13:56:42;;;;;;;56.80;1.90;;;;;;;;;;5053252;28;20554;-70
2022/10/08 13:59:09;;;;;;;57.00;1.93;;;;;;;;;;5052811;28;20458;-69
2022/10/08 14:01:38;;;;;;;57.13;1.90;;;;;;;;;;5052459;28;20771;-69
2022/10/08 14:04:05;;;;;;;57.63;2.20;;;;;;;;;;5053029;28;20484;-69
2022/10/08 14:06:32;;;;;;;58.63;2.33;;;;;;;;;;5053121;28;20472;-69
2022/10/08 14:09:00;;;;;;;57.40;2.20;;;;;;;;;;5052754;28;20535;-69
2022/10/08 14:11:27;;;;;;;57.60;2.00;;;;;;;;;;5052514;28;20978;-69
2022/10/08 14:13:54;;;;;;;57.80;2.40;;;;;;;;;;5051751;28;20455;-69
2022/10/08 14:16:21;;;;;;;59.07;3.13;;;;;;;;;;5052713;28;20468;-69
2022/10/08 14:18:49;;;;;;;57.80;2.20;;;;;;;;;;5052902;28;20448;-69
2022/10/08 14:21:17;;;;;;;58.10;2.40;;;;;;;;;;5052904;28;20799;-69
2022/10/08 14:23:44;;;;;;;57.90;2.80;;;;;;;;;;5047257;28;20495;-68
2022/10/08 14:26:12;;;;;;;60.67;2.40;;;;;;;;;;5052151;28;20468;-68
2022/10/08 14:28:39;;;;;;;57.27;2.30;;;;;;;;;;5051060;28;20864;-68
2022/10/08 14:31:06;;;;;;;57.67;1.90;;;;;;;;;;5051884;28;20509;-68
2022/10/08 14:33:33;;;;;;;63.90;2.40;;;;;;;;;;5052418;28;20460;-68
2022/10/08 14:36:15;;;;;;;57.23;1.93;;;;;;;;;;5129536;27;20535;-68
2022/10/08 14:38:42;;;;;;;60.97;2.93;;;;;;;;;;5129814;27;20489;-68
2022/10/08 14:41:09;;;;;;;57.60;2.00;;;;;;;;;;5130086;27;20937;-68
2022/10/08 14:43:36;;;;;;;57.53;2.53;;;;;;;;;;5130238;27;20441;-68
2022/10/08 14:46:03;;;;;;;58.00;2.60;;;;;;;;;;5129542;27;20487;-68